Thunder radar more information blitzortung!


Radar de pluja more information rain snow radar


Visita la nostra xarxa de llocs de meteo:

Template documentation
and downloads

And another site



No particular awareness of the weather is required.    There are no Weather-warnings

Pagina Historial Weather Underground text

Diari Resum January 9, 2016 Unitats:  Mètric    Imperial   Tant
« Previous Dia
SegĂźent Dia »
Diari Setmana Mensual Anual Personalitzada
  Maxima: Minima: Media:
Temperatura: 18.3 °C 11.0 °C 14.9 °C
Punt de rosada: 8.3 °C 3.6 °C 5.9 °C
Humitat: 61 % 49 % 55 %
Wind Speed: 13.0 km/h 0.0 km/h 4.7 km/h
RĂ fegues de vent: 19.3 km/h - -
Vent:- - WSW
Pression baro: 1009.0 hPa 1005.0 hPa -
Precipitacions: 0.0 mm    
Historical Graphs
 
 
Dades de taula per January 9, 2016
Temps Temperatura Punt de rosada Pression baro Vent Wind Speed RĂ fegues de vent Humitat Rainfall Rate (Hourly)
12:00 17.2 °C 8.3 °C 1008.0 hPa SW 1.6 km/h 8.0 km/h 56 % 0.0 mm
12:05 17.2 °C 8.3 °C 1008.0 hPa WNW 7.4 km/h 7.4 km/h 56 % 0.0 mm
12:10 17.2 °C 8.3 °C 1007.0 hPa SE 4.2 km/h 4.2 km/h 56 % 0.0 mm
12:15 17.0 °C 7.9 °C 1007.0 hPa WSW 9.3 km/h 9.3 km/h 55 % 0.0 mm
12:20 16.9 °C 8.1 °C 1007.0 hPa WSW 3.7 km/h 4.2 km/h 56 % 0.0 mm
12:25 16.7 °C 7.9 °C 1007.0 hPa NW 6.1 km/h 6.1 km/h 56 % 0.0 mm
12:30 16.5 °C 7.7 °C 1007.0 hPa West 7.4 km/h 7.4 km/h 56 % 0.0 mm
12:35 16.4 °C 7.3 °C 1007.0 hPa SW 7.4 km/h 7.4 km/h 55 % 0.0 mm
12:40 16.4 °C 7.6 °C 1007.0 hPa WNW 5.6 km/h 5.6 km/h 56 % 0.0 mm
12:45 16.4 °C 7.6 °C 1007.0 hPa SW 7.4 km/h 7.4 km/h 56 % 0.0 mm
12:50 16.4 °C 7.6 °C 1007.0 hPa West 9.3 km/h 9.3 km/h 56 % 0.0 mm
12:55 16.4 °C 7.3 °C 1007.0 hPa WSW 11.1 km/h 11.1 km/h 55 % 0.0 mm
13:00 16.5 °C 7.4 °C 1007.0 hPa SW 4.8 km/h 9.7 km/h 55 % 0.0 mm
13:05 16.6 °C 7.5 °C 1007.0 hPa WSW 4.8 km/h 8.0 km/h 55 % 0.0 mm
13:10 16.9 °C 7.8 °C 1006.0 hPa WSW 4.8 km/h 9.7 km/h 55 % 0.0 mm
13:15 17.2 °C 7.8 °C 1006.0 hPa WNW 9.3 km/h 9.3 km/h 54 % 0.0 mm
13:20 17.2 °C 7.8 °C 1006.0 hPa WSW 4.8 km/h 12.9 km/h 54 % 0.0 mm
13:25 16.9 °C 7.8 °C 1006.0 hPa WSW 3.2 km/h 8.0 km/h 55 % 0.0 mm
13:30 16.7 °C 7.3 °C 1006.0 hPa SW 13.0 km/h 13.0 km/h 54 % 0.0 mm
13:35 16.4 °C 7.3 °C 1006.0 hPa WSW 8.0 km/h 16.1 km/h 55 % 0.0 mm
13:40 16.4 °C 7.3 °C 1006.0 hPa WSW 4.8 km/h 9.7 km/h 55 % 0.0 mm
13:45 16.3 °C 7.2 °C 1006.0 hPa WSW 4.8 km/h 9.7 km/h 55 % 0.0 mm
13:50 16.1 °C 7.3 °C 1006.0 hPa West 8.0 km/h 12.9 km/h 56 % 0.0 mm
13:55 16.0 °C 7.2 °C 1006.0 hPa SSW 11.4 km/h 11.4 km/h 56 % 0.0 mm
14:00 16.1 °C 7.6 °C 1006.0 hPa SW 5.6 km/h 5.6 km/h 57 % 0.0 mm
14:05 16.1 °C 7.6 °C 1006.0 hPa West 5.6 km/h 5.6 km/h 57 % 0.0 mm
14:10 16.2 °C 7.7 °C 1006.0 hPa SSW 3.7 km/h 3.7 km/h 57 % 0.0 mm
14:20 16.4 °C 7.8 °C 1006.0 hPa SW 5.6 km/h 5.6 km/h 57 % 0.0 mm
14:25 16.3 °C 7.8 °C 1006.0 hPa West 6.4 km/h 6.4 km/h 57 % 0.0 mm
14:30 16.4 °C 7.8 °C 1006.0 hPa WSW 3.2 km/h 8.0 km/h 57 % 0.0 mm
14:35 16.8 °C 7.9 °C 1006.0 hPa West 9.3 km/h 9.3 km/h 56 % 0.0 mm
14:40 16.9 °C 8.1 °C 1006.0 hPa WSW 1.6 km/h 9.7 km/h 56 % 0.0 mm
14:45 16.8 °C 7.9 °C 1006.0 hPa WSW 3.2 km/h 9.7 km/h 56 % 0.0 mm
14:50 16.7 °C 7.6 °C 1006.0 hPa West 3.2 km/h 9.7 km/h 55 % 0.0 mm
14:55 16.8 °C 7.7 °C 1005.0 hPa West 3.2 km/h 9.7 km/h 55 % 0.0 mm
15:00 17.1 °C 7.7 °C 1005.0 hPa West 3.2 km/h 9.7 km/h 54 % 0.0 mm
15:05 17.3 °C 7.3 °C 1005.0 hPa WNW 8.0 km/h 14.5 km/h 52 % 0.0 mm
15:10 17.4 °C 7.4 °C 1006.0 hPa West 4.8 km/h 19.3 km/h 52 % 0.0 mm
15:15 17.7 °C 7.7 °C 1006.0 hPa NNW 3.7 km/h 3.7 km/h 52 % 0.0 mm
15:20 17.9 °C 7.9 °C 1006.0 hPa WSW 7.4 km/h 7.4 km/h 52 % 0.0 mm
15:25 18.1 °C 7.8 °C 1006.0 hPa ENE 5.6 km/h 5.6 km/h 51 % 0.0 mm
15:30 18.0 °C 7.7 °C 1006.0 hPa WSW 9.3 km/h 9.3 km/h 51 % 0.0 mm
15:35 18.1 °C 7.5 °C 1006.0 hPa WSW 9.3 km/h 9.3 km/h 50 % 0.0 mm
15:40 18.1 °C 7.5 °C 1006.0 hPa WSW 13.0 km/h 13.0 km/h 50 % 0.0 mm
15:45 18.2 °C 7.6 °C 1006.0 hPa SW 9.3 km/h 9.3 km/h 50 % 0.0 mm
15:50 18.1 °C 7.5 °C 1006.0 hPa WSW 8.0 km/h 12.9 km/h 50 % 0.0 mm
15:55 18.2 °C 7.6 °C 1006.0 hPa WSW 4.8 km/h 9.7 km/h 50 % 0.0 mm
16:00 18.3 °C 7.7 °C 1006.0 hPa West 3.2 km/h 6.4 km/h 50 % 0.0 mm
16:05 18.2 °C 7.3 °C 1006.0 hPa SW 11.1 km/h 11.1 km/h 49 % 0.0 mm
16:10 18.0 °C 7.1 °C 1005.0 hPa WSW 9.3 km/h 9.3 km/h 49 % 0.0 mm
16:15 18.2 °C 7.3 °C 1005.0 hPa West 7.4 km/h 7.4 km/h 49 % 0.0 mm
16:20 18.1 °C 7.2 °C 1005.0 hPa WSW 6.4 km/h 6.4 km/h 49 % 0.0 mm
16:25 18.1 °C 7.2 °C 1006.0 hPa SSW 5.6 km/h 5.6 km/h 49 % 0.0 mm
16:30 17.8 °C 6.9 °C 1006.0 hPa WNW 9.3 km/h 9.3 km/h 49 % 0.0 mm
16:35 17.6 °C 6.8 °C 1006.0 hPa WSW 9.3 km/h 9.3 km/h 49 % 0.0 mm
16:40 17.3 °C 6.5 °C 1006.7 hPa WSW 3.2 km/h 12.9 km/h 49 % 0.0 mm
16:45 17.2 °C 6.4 °C 1007.0 hPa WSW 3.2 km/h 16.1 km/h 49 % 0.0 mm
16:50 16.8 °C 6.4 °C 1007.0 hPa WSW 4.8 km/h 6.4 km/h 50 % 0.0 mm
16:55 16.5 °C 6.1 °C 1006.0 hPa WSW 4.8 km/h 9.7 km/h 50 % 0.0 mm
17:00 16.4 °C 6.2 °C 1006.0 hPa WSW 4.8 km/h 9.7 km/h 51 % 0.0 mm
17:05 16.4 °C 6.3 °C 1006.0 hPa West 3.2 km/h 9.7 km/h 51 % 0.0 mm
17:10 16.2 °C 6.1 °C 1005.0 hPa WSW 3.2 km/h 4.8 km/h 51 % 0.0 mm
17:15 16.1 °C 5.9 °C 1005.0 hPa WSW 5.6 km/h 5.6 km/h 51 % 0.0 mm
17:20 16.0 °C 5.8 °C 1005.0 hPa WSW 5.3 km/h 5.3 km/h 51 % 0.0 mm
17:25 15.9 °C 5.8 °C 1007.0 hPa SW 9.0 km/h 9.0 km/h 51 % 0.0 mm
17:30 15.6 °C 5.5 °C 1007.0 hPa WSW 7.4 km/h 7.4 km/h 51 % 0.0 mm
17:35 15.4 °C 5.3 °C 1007.0 hPa WSW 3.7 km/h 3.7 km/h 51 % 0.0 mm
17:40 15.2 °C 5.1 °C 1007.0 hPa WSW 4.2 km/h 4.2 km/h 51 % 0.0 mm
17:45 15.1 °C 5.3 °C 1007.0 hPa WSW 1.6 km/h 4.8 km/h 52 % 0.0 mm
17:50 14.9 °C 5.1 °C 1007.0 hPa WSW 4.8 km/h 6.4 km/h 52 % 0.0 mm
17:55 14.9 °C 5.1 °C 1007.0 hPa WSW 3.2 km/h 9.7 km/h 52 % 0.0 mm
18:00 14.8 °C 5.0 °C 1007.0 hPa WSW 3.2 km/h 8.0 km/h 52 % 0.0 mm
18:05 14.7 °C 4.9 °C 1007.0 hPa West 3.2 km/h 9.7 km/h 52 % 0.0 mm
18:10 14.6 °C 5.1 °C 1007.0 hPa WSW 3.2 km/h 4.8 km/h 53 % 0.0 mm
18:15 14.4 °C 4.9 °C 1007.0 hPa WSW 4.2 km/h 4.2 km/h 53 % 0.0 mm
18:20 14.3 °C 4.8 °C 1007.0 hPa WNW 5.8 km/h 5.8 km/h 53 % 0.0 mm
18:25 14.3 °C 4.8 °C 1007.0 hPa WSW 5.6 km/h 5.6 km/h 53 % 0.0 mm
18:30 14.1 °C 4.9 °C 1007.0 hPa WSW 3.7 km/h 3.7 km/h 54 % 0.0 mm
18:35 14.1 °C 4.9 °C 1007.0 hPa West 7.4 km/h 7.4 km/h 54 % 0.0 mm
18:40 14.0 °C 4.8 °C 1007.0 hPa SW 5.0 km/h 5.0 km/h 54 % 0.0 mm
18:45 13.9 °C 4.7 °C 1007.0 hPa WSW 3.2 km/h 4.8 km/h 54 % 0.0 mm
18:50 13.9 °C 4.7 °C 1007.0 hPa West 7.4 km/h 7.4 km/h 54 % 0.0 mm
18:55 13.9 °C 5.0 °C 1008.0 hPa WSW 5.6 km/h 5.6 km/h 55 % 0.0 mm
19:00 13.8 °C 4.9 °C 1008.0 hPa WSW 4.8 km/h 8.0 km/h 55 % 0.0 mm
19:05 13.8 °C 4.9 °C 1008.0 hPa WSW 3.2 km/h 6.4 km/h 55 % 0.0 mm
19:10 13.7 °C 4.8 °C 1007.0 hPa WSW 7.4 km/h 7.4 km/h 55 % 0.0 mm
19:15 13.6 °C 4.7 °C 1007.0 hPa SW 9.3 km/h 9.3 km/h 55 % 0.0 mm
19:20 13.5 °C 4.9 °C 1007.0 hPa SW 3.2 km/h 9.7 km/h 56 % 0.0 mm
19:25 13.4 °C 4.8 °C 1007.7 hPa WSW 3.2 km/h 4.8 km/h 56 % 0.0 mm
19:30 13.4 °C 4.8 °C 1008.0 hPa WSW 4.7 km/h 5.8 km/h 56 % 0.0 mm
19:35 13.4 °C 4.8 °C 1008.0 hPa WSW 3.2 km/h 4.8 km/h 56 % 0.0 mm
19:40 13.3 °C 4.7 °C 1008.0 hPa SW 1.6 km/h 4.8 km/h 56 % 0.0 mm
19:45 13.3 °C 4.7 °C 1008.0 hPa SW 1.6 km/h 4.8 km/h 56 % 0.0 mm
19:50 13.1 °C 4.5 °C 1008.0 hPa Calm   3.2 km/h 56 % 0.0 mm
19:55 13.0 °C 4.4 °C 1008.0 hPa SW 1.6 km/h 3.2 km/h 56 % 0.0 mm
20:00 12.8 °C 4.5 °C 1008.0 hPa SW 3.7 km/h 3.7 km/h 57 % 0.0 mm
20:05 12.7 °C 4.4 °C 1008.0 hPa WSW 1.9 km/h 2.3 km/h 57 % 0.0 mm
20:10 12.7 °C 4.4 °C 1008.0 hPa SW 3.2 km/h 3.2 km/h 57 % 0.0 mm
20:15 12.7 °C 4.4 °C 1008.0 hPa SW 3.7 km/h 3.7 km/h 57 % 0.0 mm
20:20 12.7 °C 4.4 °C 1008.0 hPa WSW 3.7 km/h 3.7 km/h 57 % 0.0 mm
20:25 12.6 °C 4.6 °C 1008.0 hPa Calm     58 % 0.0 mm
20:30 12.5 °C 4.4 °C 1008.0 hPa Calm     58 % 0.0 mm
20:35 12.4 °C 4.3 °C 1008.0 hPa Calm     58 % 0.0 mm
20:40 12.3 °C 4.5 °C 1008.0 hPa Calm     59 % 0.0 mm
20:45 12.2 °C 4.4 °C 1008.0 hPa Calm     59 % 0.0 mm
20:50 12.2 °C 4.4 °C 1008.0 hPa Calm     59 % 0.0 mm
20:55 12.2 °C 4.4 °C 1008.0 hPa WNW 1.9 km/h   59 % 0.0 mm
21:00 12.2 °C 4.7 °C 1008.0 hPa NNW 1.9 km/h 1.9 km/h 60 % 0.0 mm
21:05 12.2 °C 4.4 °C 1008.0 hPa NNW 1.9 km/h   59 % 0.0 mm
21:10 12.2 °C 4.7 °C 1008.0 hPa Calm     60 % 0.0 mm
21:15 12.2 °C 4.7 °C 1008.0 hPa Calm     60 % 0.0 mm
21:20 12.2 °C 4.7 °C 1008.0 hPa NW 1.9 km/h 1.9 km/h 60 % 0.0 mm
21:25 12.0 °C 4.2 °C 1008.0 hPa WNW 1.9 km/h   59 % 0.0 mm
21:30 11.8 °C 4.3 °C 1008.0 hPa NW 1.9 km/h   60 % 0.0 mm
21:35 11.7 °C 3.9 °C 1008.0 hPa West 2.6 km/h   59 % 0.0 mm
21:40 11.4 °C 3.9 °C 1008.0 hPa SW 1.9 km/h 2.3 km/h 60 % 0.0 mm
21:45 11.1 °C 3.6 °C 1008.0 hPa WSW 1.6 km/h 3.2 km/h 60 % 0.0 mm
21:50 11.0 °C 3.8 °C 1008.0 hPa Calm     61 % 0.0 mm
21:55 11.1 °C 3.8 °C 1009.0 hPa NW 2.6 km/h 2.6 km/h 61 % 0.0 mm
22:00 11.2 °C 3.9 °C 1009.0 hPa Calm     61 % 0.0 mm
22:05 11.3 °C 4.1 °C 1009.0 hPa Calm   1.6 km/h 61 % 0.0 mm
22:10 11.3 °C 4.1 °C 1008.0 hPa West 1.9 km/h   61 % 0.0 mm
22:15 11.5 °C 4.2 °C 1008.0 hPa Calm   3.2 km/h 61 % 0.0 mm
22:20 11.4 °C 4.2 °C 1008.0 hPa WSW 3.2 km/h 3.2 km/h 61 % 0.0 mm
22:25 11.2 °C 3.9 °C 1008.7 hPa Calm   3.2 km/h 61 % 0.0 mm
22:30 11.3 °C 4.1 °C 1009.0 hPa West 3.2 km/h 4.8 km/h 61 % 0.0 mm
22:35 11.8 °C 4.5 °C 1009.0 hPa WSW 3.2 km/h 4.8 km/h 61 % 0.0 mm
22:40 11.9 °C 4.6 °C 1008.0 hPa WSW 3.2 km/h 4.8 km/h 61 % 0.0 mm
22:45 11.9 °C 4.4 °C 1008.0 hPa WSW 3.9 km/h 5.3 km/h 60 % 0.0 mm
22:50 12.0 °C 4.4 °C 1008.0 hPa West 5.8 km/h 5.8 km/h 60 % 0.0 mm
22:55 12.1 °C 4.6 °C 1008.0 hPa WSW 6.9 km/h 6.9 km/h 60 % 0.0 mm
23:00 12.3 °C 4.8 °C 1008.0 hPa WSW 7.4 km/h 7.4 km/h 60 % 0.0 mm
23:05 12.7 °C 4.9 °C 1008.0 hPa West 11.1 km/h 11.1 km/h 59 % 0.0 mm
23:10 12.7 °C 4.9 °C 1008.0 hPa WSW 4.8 km/h 8.0 km/h 59 % 0.0 mm
23:15 12.9 °C 4.8 °C 1008.0 hPa West 4.8 km/h 8.0 km/h 58 % 0.0 mm
23:20 13.0 °C 4.9 °C 1008.0 hPa WSW 13.0 km/h 13.0 km/h 58 % 0.0 mm
23:25 13.0 °C 4.7 °C 1009.0 hPa WSW 4.8 km/h 9.7 km/h 57 % 0.0 mm
Meteo Sesrovires
Elogis d' Weather Underground - 3.25 mb

Guio original per  Jim McMurry - jmcmurry@mwt.net Adaptat per a la plantilla per  Wim van der Kuil - Leuven-Template.eu

Trobareu la nostra informacio del temps tambe a:

Weather Underground

AWEKAS